createdAt,value
2018-07-16T00:00:36.952Z,18.90
2018-07-16T00:03:05.712Z,18.80
2018-07-16T00:05:34.696Z,18.80
2018-07-16T00:08:05.491Z,18.90
2018-07-16T00:10:34.190Z,18.80
2018-07-16T00:13:02.845Z,18.70
2018-07-16T00:15:31.722Z,18.70
2018-07-16T00:18:01.467Z,18.60
2018-07-16T00:20:31.813Z,18.60
2018-07-16T00:23:01.006Z,18.60
2018-07-16T00:25:30.847Z,18.50
2018-07-16T00:27:59.570Z,18.50
2018-07-16T00:30:29.497Z,18.40
2018-07-16T00:32:58.905Z,18.40
2018-07-16T00:35:27.604Z,18.40
2018-07-16T00:37:57.118Z,18.40
2018-07-16T00:40:25.805Z,18.40
2018-07-16T00:42:54.481Z,18.30
2018-07-16T00:45:24.035Z,18.20
2018-07-16T00:47:53.055Z,18.20
2018-07-16T00:50:21.804Z,18.10
2018-07-16T00:52:51.079Z,18.10
2018-07-16T00:55:20.555Z,18.20
2018-07-16T00:57:49.965Z,18.30
2018-07-16T01:00:19.590Z,18.30
2018-07-16T01:02:48.296Z,18.30
2018-07-16T01:05:17.791Z,18.30
2018-07-16T01:07:47.039Z,18.30
2018-07-16T01:10:15.725Z,18.10
2018-07-16T01:12:44.549Z,18.10
2018-07-16T01:15:13.276Z,18.00
2018-07-16T01:17:42.027Z,18.10
2018-07-16T01:20:11.357Z,18.20
2018-07-16T01:22:40.756Z,18.20
2018-07-16T01:25:09.624Z,18.10
2018-07-16T01:27:39.310Z,18.10
2018-07-16T01:30:08.892Z,18.10
2018-07-16T01:32:38.355Z,18.10
2018-07-16T01:35:07.126Z,18.10
2018-07-16T01:37:36.150Z,18.10
2018-07-16T01:40:04.916Z,18.10
2018-07-16T01:42:33.668Z,18.10
2018-07-16T01:45:02.833Z,18.00
2018-07-16T01:47:31.757Z,18.00
2018-07-16T01:50:01.117Z,18.00
2018-07-16T01:52:29.774Z,18.00
2018-07-16T01:54:58.903Z,18.00
2018-07-16T01:57:28.912Z,17.90
2018-07-16T01:59:58.089Z,17.90
2018-07-16T02:02:26.768Z,17.80
2018-07-16T02:04:55.470Z,17.70
2018-07-16T02:07:24.061Z,17.70
2018-07-16T02:09:53.769Z,17.70
2018-07-16T02:12:22.585Z,17.60
2018-07-16T02:14:51.789Z,17.60
2018-07-16T02:17:20.454Z,17.60
2018-07-16T02:22:20.728Z,17.80
2018-07-16T02:27:18.714Z,17.70
2018-07-16T02:29:48.668Z,17.70
2018-07-16T02:32:18.550Z,17.70
2018-07-16T02:34:47.233Z,17.70
2018-07-16T02:37:15.927Z,17.60
2018-07-16T02:39:45.673Z,17.50
2018-07-16T02:42:15.728Z,17.50
2018-07-16T02:44:45.505Z,17.50
2018-07-16T02:47:14.238Z,17.50
2018-07-16T02:49:42.874Z,17.50
2018-07-16T02:54:43.438Z,17.20
2018-07-16T02:57:12.227Z,17.30
2018-07-16T03:09:36.018Z,17.10
2018-07-16T03:14:33.280Z,17.00
2018-07-16T03:17:02.677Z,17.00
2018-07-16T03:19:31.310Z,17.10
2018-07-16T03:22:01.375Z,17.00
2018-07-16T03:24:32.269Z,17.10
2018-07-16T03:27:01.198Z,17.20
2018-07-16T03:29:31.115Z,17.20
2018-07-16T03:32:02.322Z,17.20
2018-07-16T03:34:31.356Z,17.30
2018-07-16T03:37:00.137Z,17.30
2018-07-16T03:39:29.310Z,17.20
2018-07-16T03:41:59.089Z,17.10
2018-07-16T03:44:27.970Z,17.10
2018-07-16T03:46:58.088Z,17.10
2018-07-16T03:49:26.916Z,17.10
2018-07-16T03:54:25.284Z,17.20
2018-07-16T03:56:54.197Z,17.30
2018-07-16T03:59:23.106Z,17.20
2018-07-16T04:01:52.113Z,17.20
2018-07-16T04:04:22.176Z,17.20
2018-07-16T04:06:51.652Z,17.30
2018-07-16T04:09:20.794Z,17.40
2018-07-16T04:11:49.817Z,17.40
2018-07-16T04:14:19.224Z,17.50
2018-07-16T04:16:48.355Z,17.50
2018-07-16T04:19:17.215Z,17.50
2018-07-16T04:21:46.261Z,17.50
2018-07-16T04:24:15.894Z,17.50
2018-07-16T04:26:44.736Z,17.60
2018-07-16T04:29:15.119Z,17.50
2018-07-16T04:31:45.060Z,17.50
2018-07-16T04:34:13.854Z,17.60
2018-07-16T04:36:45.856Z,17.70
2018-07-16T04:39:14.826Z,17.70
2018-07-16T04:41:43.663Z,17.80
2018-07-16T04:44:13.324Z,17.90
2018-07-16T04:46:42.703Z,17.90
2018-07-16T04:49:12.472Z,18.00
2018-07-16T04:51:42.311Z,18.10
2018-07-16T04:54:11.229Z,18.10
2018-07-16T04:56:39.926Z,18.20
2018-07-16T04:59:08.614Z,18.20
2018-07-16T05:01:37.324Z,18.30
2018-07-16T05:04:07.339Z,18.30
2018-07-16T05:06:36.458Z,18.30
2018-07-16T05:09:05.978Z,18.40
2018-07-16T05:11:34.854Z,18.50
2018-07-16T05:14:04.675Z,18.50
2018-07-16T05:16:35.195Z,18.60
2018-07-16T05:19:03.929Z,18.70
2018-07-16T05:21:32.737Z,18.80
2018-07-16T05:24:02.513Z,18.80
2018-07-16T05:26:31.471Z,19.00
2018-07-16T05:29:00.522Z,19.00
2018-07-16T05:31:29.568Z,19.10
2018-07-16T05:33:58.849Z,19.10
2018-07-16T05:36:28.672Z,19.20
2018-07-16T05:38:58.847Z,19.20
2018-07-16T05:41:27.637Z,19.20
2018-07-16T05:43:56.696Z,19.30
2018-07-16T05:46:26.344Z,19.40
2018-07-16T05:48:55.036Z,19.50
2018-07-16T05:51:24.354Z,19.60
2018-07-16T05:53:53.290Z,19.60
2018-07-16T05:56:21.977Z,19.60
2018-07-16T05:58:51.098Z,19.60
2018-07-16T06:01:20.189Z,19.70
2018-07-16T06:03:49.043Z,19.80
2018-07-16T06:06:17.986Z,19.90
2018-07-16T06:08:46.945Z,20.00
2018-07-16T06:11:47.979Z,20.00
2018-07-16T06:14:17.208Z,20.20
2018-07-16T06:16:45.910Z,20.40
2018-07-16T06:19:14.996Z,20.70
2018-07-16T06:21:43.652Z,21.30
2018-07-16T06:24:13.646Z,22.00
2018-07-16T06:26:42.561Z,22.80
2018-07-16T06:29:11.248Z,23.80
2018-07-16T06:31:40.046Z,24.60
2018-07-16T06:34:08.754Z,25.00
2018-07-16T06:36:38.190Z,25.00
2018-07-16T06:39:07.009Z,25.30
2018-07-16T06:41:36.279Z,25.00
2018-07-16T06:44:04.718Z,25.60
2018-07-16T06:49:02.055Z,26.20
2018-07-16T06:51:31.076Z,25.90
2018-07-16T06:54:01.667Z,25.20
2018-07-16T06:56:31.594Z,25.70
2018-07-16T06:59:00.440Z,25.80
2018-07-16T07:01:29.763Z,25.40
2018-07-16T07:03:58.834Z,25.20
2018-07-16T07:06:29.678Z,25.30
2018-07-16T07:08:59.475Z,25.40
2018-07-16T07:11:28.382Z,25.40
2018-07-16T07:13:57.189Z,25.40
2018-07-16T07:16:25.941Z,25.70
2018-07-16T07:18:54.697Z,26.70
2018-07-16T07:21:23.447Z,27.90
2018-07-16T07:23:52.243Z,28.60
2018-07-16T07:26:20.951Z,28.30
2018-07-16T07:28:49.589Z,28.30
2018-07-16T07:31:20.452Z,29.10
2018-07-16T07:33:49.173Z,29.20
2018-07-16T07:36:17.838Z,29.20
2018-07-16T07:38:46.562Z,28.80
2018-07-16T07:41:15.664Z,29.40
2018-07-16T07:43:44.623Z,29.10
2018-07-16T07:48:42.434Z,27.60
2018-07-16T07:51:11.120Z,27.40
2018-07-16T07:53:39.869Z,27.30
2018-07-16T07:56:08.693Z,26.90
2018-07-16T07:58:37.804Z,26.60
2018-07-16T08:01:09.382Z,27.70
2018-07-16T08:03:38.166Z,28.90
2018-07-16T08:06:08.058Z,29.60
2018-07-16T08:08:38.460Z,28.20
2018-07-16T08:11:07.744Z,27.20
2018-07-16T08:13:36.952Z,26.80
2018-07-16T08:16:06.643Z,26.30
2018-07-16T08:18:35.445Z,26.10
2018-07-16T08:21:04.798Z,26.10
2018-07-16T08:23:36.218Z,26.20
2018-07-16T08:26:05.361Z,26.60
2018-07-16T08:28:34.241Z,26.70
2018-07-16T08:31:03.454Z,26.30
2018-07-16T08:33:32.890Z,26.20
2018-07-16T08:36:01.725Z,26.00
2018-07-16T08:38:31.050Z,26.00
2018-07-16T08:41:00.394Z,26.00
2018-07-16T08:43:29.630Z,25.80
2018-07-16T08:45:58.950Z,25.60
2018-07-16T08:48:28.613Z,25.70
2018-07-16T08:51:00.204Z,25.90
2018-07-16T08:53:29.408Z,26.10
2018-07-16T08:55:58.871Z,26.20
2018-07-16T08:58:29.457Z,26.20
2018-07-16T09:01:00.865Z,26.10
2018-07-16T09:11:08.179Z,25.80
2018-07-16T09:13:37.643Z,26.00
2018-07-16T09:16:08.517Z,26.00
2018-07-16T09:18:38.060Z,26.10
2018-07-16T09:21:08.514Z,26.00
2018-07-16T09:23:38.815Z,26.00
2018-07-16T09:26:08.365Z,26.00
2018-07-16T09:28:38.004Z,26.00
2018-07-16T09:34:05.158Z,26.00
2018-07-16T09:36:34.018Z,25.80
2018-07-16T09:39:05.690Z,25.80
2018-07-16T09:41:36.092Z,25.70
2018-07-16T09:44:05.705Z,25.60
2018-07-16T09:46:34.989Z,25.60
2018-07-16T09:49:04.221Z,25.70
2018-07-16T09:51:35.071Z,25.70
2018-07-16T09:54:06.315Z,25.60
2018-07-16T09:56:36.771Z,25.60
2018-07-16T09:59:07.022Z,25.60
2018-07-16T10:01:41.342Z,25.50
2018-07-16T10:04:10.437Z,25.40
2018-07-16T10:06:39.840Z,25.50
2018-07-16T10:09:09.981Z,25.30
2018-07-16T10:11:38.929Z,25.40
2018-07-16T10:14:07.769Z,25.40
2018-07-16T10:16:36.697Z,25.50
2018-07-16T10:19:05.646Z,25.50
2018-07-16T10:21:34.608Z,25.30
2018-07-16T10:24:07.506Z,25.20
2018-07-16T10:26:38.558Z,25.20
2018-07-16T10:29:07.645Z,25.10
2018-07-16T10:31:36.336Z,25.10
2018-07-16T10:34:05.317Z,25.10
2018-07-16T10:36:34.300Z,24.90
2018-07-16T10:39:03.229Z,24.90
2018-07-16T10:41:32.338Z,24.80
2018-07-16T10:44:01.910Z,24.80
2018-07-16T10:46:31.115Z,24.60
2018-07-16T10:49:00.192Z,24.60
2018-07-16T10:51:29.370Z,24.50
2018-07-16T10:53:58.276Z,24.40
2018-07-16T10:56:28.098Z,24.30
2018-07-16T10:58:57.968Z,24.30
2018-07-16T11:01:27.104Z,24.40
2018-07-16T11:03:55.969Z,24.60
2018-07-16T11:06:25.325Z,24.60
2018-07-16T11:08:57.866Z,24.60
2018-07-16T11:11:28.029Z,24.60
2018-07-16T11:13:56.974Z,24.50
2018-07-16T11:16:26.494Z,24.50
2018-07-16T11:19:00.370Z,24.60
2018-07-16T11:21:29.158Z,24.60
2018-07-16T11:23:58.042Z,24.40
2018-07-16T11:26:27.893Z,24.40
2018-07-16T11:28:57.049Z,24.40
2018-07-16T11:31:29.461Z,24.50
2018-07-16T11:33:58.865Z,24.60
2018-07-16T11:36:28.800Z,24.50
2018-07-16T11:38:57.496Z,24.50
2018-07-16T11:41:26.638Z,24.70
2018-07-16T11:43:55.821Z,24.70
2018-07-16T11:46:24.815Z,24.60
2018-07-16T11:48:54.153Z,24.60
2018-07-16T11:51:23.046Z,24.40
2018-07-16T11:53:52.245Z,24.20
2018-07-16T11:56:22.414Z,24.40
2018-07-16T11:58:51.554Z,24.50
2018-07-16T12:01:20.413Z,24.60
2018-07-16T12:03:50.427Z,24.50
2018-07-16T12:06:38.741Z,24.50
2018-07-16T12:09:08.883Z,24.70
2018-07-16T12:11:37.852Z,24.80
2018-07-16T12:14:06.862Z,24.80
2018-07-16T12:16:35.946Z,24.70
2018-07-16T12:19:04.863Z,24.70
2018-07-16T12:21:33.846Z,24.70
2018-07-16T12:24:06.004Z,24.60
2018-07-16T12:26:34.941Z,24.70
2018-07-16T12:29:03.953Z,24.50
2018-07-16T12:31:32.921Z,24.40
2018-07-16T12:34:02.326Z,24.50
2018-07-16T12:36:31.109Z,24.60
2018-07-16T12:39:02.025Z,24.60
2018-07-16T12:41:30.965Z,24.60
2018-07-16T12:46:28.985Z,24.70
2018-07-16T13:16:21.281Z,24.20
2018-07-16T13:21:19.343Z,24.50
2018-07-16T13:23:51.112Z,24.70
2018-07-16T13:28:48.654Z,24.40
2018-07-16T13:31:18.187Z,24.50
2018-07-16T13:33:47.497Z,24.50
2018-07-16T13:36:17.512Z,24.60
2018-07-16T13:38:46.333Z,24.60
2018-07-16T13:41:15.111Z,24.60
2018-07-16T13:43:43.874Z,24.70
2018-07-16T13:46:12.793Z,24.60
2018-07-16T13:48:42.985Z,24.60
2018-07-16T13:51:11.804Z,24.60
2018-07-16T13:53:40.759Z,24.60
2018-07-16T13:56:09.930Z,24.50
2018-07-16T13:58:39.122Z,24.60
2018-07-16T14:01:08.090Z,24.70
2018-07-16T14:03:36.942Z,24.80
2018-07-16T14:06:05.896Z,24.60
2018-07-16T14:08:35.658Z,24.50
2018-07-16T14:11:05.290Z,24.60
2018-07-16T14:13:34.053Z,24.70
2018-07-16T14:16:02.951Z,24.70
2018-07-16T14:18:31.990Z,24.60
2018-07-16T14:21:01.398Z,24.70
2018-07-16T14:23:30.207Z,24.70
2018-07-16T14:26:00.393Z,24.70
2018-07-16T14:28:29.323Z,24.70
2018-07-16T14:31:01.251Z,24.70
2018-07-16T14:33:30.558Z,24.80
2018-07-16T14:36:00.361Z,24.80
2018-07-16T14:38:29.109Z,24.80
2018-07-16T14:40:58.014Z,24.80
2018-07-16T14:43:26.878Z,24.80
2018-07-16T14:45:56.135Z,24.80
2018-07-16T14:48:25.508Z,24.80
2018-07-16T14:50:54.600Z,24.70
2018-07-16T14:53:23.630Z,24.80
2018-07-16T14:55:55.389Z,24.70
2018-07-16T14:58:31.014Z,24.60
2018-07-16T15:01:00.416Z,24.60
2018-07-16T15:03:29.334Z,24.70
2018-07-16T15:05:58.314Z,24.80
2018-07-16T15:08:27.167Z,24.70
2018-07-16T15:11:20.079Z,24.70
2018-07-16T15:13:48.926Z,24.60
2018-07-16T15:16:17.940Z,24.80
2018-07-16T15:18:56.067Z,24.80
2018-07-16T15:24:05.525Z,24.80
2018-07-16T15:26:34.421Z,24.80
2018-07-16T15:31:33.834Z,24.80
2018-07-16T15:34:04.736Z,24.90
2018-07-16T15:36:33.590Z,24.80
2018-07-16T15:41:41.291Z,24.80
2018-07-16T15:44:19.395Z,24.70
2018-07-16T15:47:00.177Z,24.60
2018-07-16T15:49:29.230Z,24.70
2018-07-16T15:51:58.027Z,24.70
2018-07-16T15:54:26.909Z,24.80
2018-07-16T15:56:56.370Z,24.70
2018-07-16T15:59:25.096Z,24.60
2018-07-16T16:01:55.437Z,24.60
2018-07-16T16:04:25.247Z,24.70
2018-07-16T16:06:54.465Z,24.70
2018-07-16T16:09:23.223Z,24.80
2018-07-16T16:11:52.729Z,24.70
2018-07-16T16:14:21.820Z,24.60
2018-07-16T16:16:50.662Z,24.70
2018-07-16T16:19:19.596Z,24.80
2018-07-16T16:21:48.505Z,24.80
2018-07-16T16:24:18.163Z,24.80
2018-07-16T16:26:47.643Z,24.90
2018-07-16T16:29:16.837Z,24.70
2018-07-16T16:31:45.905Z,24.70
2018-07-16T16:34:14.656Z,24.70
2018-07-16T16:36:45.126Z,24.70
2018-07-16T16:39:14.176Z,24.70
2018-07-16T16:41:43.103Z,24.60
2018-07-16T16:44:12.071Z,24.60
2018-07-16T16:46:40.941Z,24.60
2018-07-16T16:49:10.439Z,24.70
2018-07-16T16:51:39.342Z,24.70
2018-07-16T16:54:09.224Z,24.70
2018-07-16T16:56:38.287Z,24.70
2018-07-16T16:59:07.087Z,24.80
2018-07-16T17:01:43.801Z,24.90
2018-07-16T17:04:13.377Z,24.90
2018-07-16T17:06:42.469Z,25.00
2018-07-16T17:09:25.593Z,24.80
2018-07-16T17:17:51.238Z,24.70
2018-07-16T17:23:16.084Z,24.50
2018-07-16T17:25:45.504Z,24.40
2018-07-16T17:28:14.236Z,24.50
2018-07-16T17:30:43.803Z,24.50
2018-07-16T17:33:12.636Z,24.60
2018-07-16T17:35:42.350Z,24.60
2018-07-16T17:38:12.047Z,24.60
2018-07-16T17:43:11.812Z,24.60
2018-07-16T17:45:41.876Z,24.60
2018-07-16T17:48:11.548Z,24.70
2018-07-16T17:50:41.944Z,24.70
2018-07-16T17:53:10.958Z,24.70
2018-07-16T17:55:41.375Z,24.70
2018-07-16T17:58:10.323Z,24.60
2018-07-16T18:00:39.785Z,24.60
2018-07-16T18:03:10.516Z,24.60
2018-07-16T18:05:50.410Z,24.60
2018-07-16T18:08:19.104Z,24.70
2018-07-16T18:10:47.989Z,24.60
2018-07-16T18:13:16.764Z,24.60
2018-07-16T18:15:47.296Z,24.50
2018-07-16T18:18:16.492Z,24.50
2018-07-16T18:23:15.201Z,24.50
2018-07-16T18:25:46.424Z,24.40
2018-07-16T18:28:17.967Z,24.40
2018-07-16T18:30:46.994Z,24.40
2018-07-16T18:33:16.559Z,24.30
2018-07-16T18:35:46.468Z,24.20
2018-07-16T18:38:15.350Z,24.20
2018-07-16T18:40:44.296Z,24.20
2018-07-16T18:43:14.039Z,24.20
2018-07-16T18:45:42.896Z,24.20
2018-07-16T18:50:41.155Z,24.20
2018-07-16T18:53:11.806Z,24.30
2018-07-16T18:55:44.147Z,24.20
2018-07-16T18:58:16.742Z,24.20
2018-07-16T19:00:52.460Z,24.20
2018-07-16T19:03:23.365Z,24.10
2018-07-16T19:05:59.189Z,24.10
2018-07-16T19:08:39.130Z,24.00
2018-07-16T19:11:09.883Z,24.00
2018-07-16T19:13:43.006Z,24.00
2018-07-16T19:16:14.312Z,23.90
2018-07-16T19:18:43.708Z,23.80
2018-07-16T19:21:14.290Z,23.80
2018-07-16T19:23:44.328Z,23.80
2018-07-16T19:26:13.386Z,23.80
2018-07-16T19:28:42.527Z,23.80
2018-07-16T19:31:11.410Z,23.80
2018-07-16T19:33:43.117Z,23.70
2018-07-16T19:41:12.687Z,23.60
2018-07-16T19:43:41.776Z,23.50
2018-07-16T19:46:11.657Z,23.50
2018-07-16T19:48:43.417Z,23.50
2018-07-16T19:51:12.367Z,23.50
2018-07-16T19:53:41.663Z,23.40
2018-07-16T19:56:12.806Z,23.30
2018-07-16T19:58:41.746Z,23.20
2018-07-16T20:03:40.636Z,23.10
2018-07-16T20:06:09.494Z,23.10
2018-07-16T20:08:40.564Z,23.00
2018-07-16T20:11:09.579Z,22.90
2018-07-16T20:13:38.511Z,22.90
2018-07-16T20:16:07.468Z,22.90
2018-07-16T20:18:36.994Z,22.90
2018-07-16T20:21:06.057Z,22.90
2018-07-16T20:23:34.899Z,22.90
2018-07-16T20:26:04.666Z,22.90
2018-07-16T20:28:34.140Z,22.90
2018-07-16T20:31:03.976Z,23.00
2018-07-16T20:33:33.445Z,23.00
2018-07-16T20:36:02.830Z,23.00
2018-07-16T20:38:38.232Z,23.10
2018-07-16T20:41:07.883Z,23.10
2018-07-16T20:43:38.341Z,23.00
2018-07-16T20:46:40.582Z,23.00
2018-07-16T20:49:36.837Z,23.00
2018-07-16T20:52:06.044Z,23.00
2018-07-16T20:54:40.967Z,22.90
2018-07-16T20:57:12.437Z,22.90
2018-07-16T20:59:42.097Z,22.80
2018-07-16T21:02:17.439Z,22.80
2018-07-16T21:04:46.326Z,22.80
2018-07-16T21:07:19.789Z,22.80
2018-07-16T21:09:49.018Z,22.80
2018-07-16T21:12:18.612Z,22.70
2018-07-16T21:14:56.640Z,22.70
2018-07-16T21:17:26.511Z,22.70
2018-07-16T21:19:56.579Z,22.60
2018-07-16T21:22:27.519Z,22.50
2018-07-16T21:25:03.294Z,22.30
2018-07-16T21:27:33.135Z,22.20
2018-07-16T21:30:02.270Z,22.10
2018-07-16T21:32:31.152Z,22.00
2018-07-16T21:35:04.145Z,22.00
2018-07-16T21:37:33.271Z,21.90
2018-07-16T21:40:20.231Z,21.90
2018-07-16T21:43:09.661Z,21.80
2018-07-16T21:45:43.407Z,21.80
2018-07-16T21:48:23.711Z,21.70
2018-07-16T21:50:56.141Z,21.80
2018-07-16T21:53:53.764Z,21.80
2018-07-16T21:59:02.023Z,21.60
2018-07-16T22:01:30.832Z,21.60
2018-07-16T22:04:01.367Z,21.60
2018-07-16T22:06:35.583Z,21.60
2018-07-16T22:09:08.492Z,21.60
2018-07-16T22:11:37.455Z,21.60
2018-07-16T22:14:07.464Z,21.50
2018-07-16T22:16:40.823Z,21.40
2018-07-16T22:19:11.921Z,21.40
2018-07-16T22:21:48.944Z,21.40
2018-07-16T22:26:58.295Z,21.40
2018-07-16T22:29:27.471Z,21.40
2018-07-16T22:32:00.643Z,21.50
2018-07-16T22:34:29.863Z,21.40
2018-07-16T22:37:05.057Z,21.50
2018-07-16T22:39:34.074Z,21.40
2018-07-16T22:42:03.967Z,21.50
2018-07-16T22:44:32.755Z,21.40
2018-07-16T22:47:02.561Z,21.40
2018-07-16T23:00:27.798Z,21.30
2018-07-16T23:02:57.579Z,21.30
2018-07-16T23:05:26.806Z,21.20
2018-07-16T23:07:56.888Z,21.20
2018-07-16T23:10:26.474Z,21.10
2018-07-16T23:12:55.981Z,21.00
2018-07-16T23:15:24.924Z,20.90
2018-07-16T23:17:53.743Z,20.70
2018-07-16T23:20:22.751Z,20.70
2018-07-16T23:22:54.071Z,20.60
2018-07-16T23:25:23.336Z,20.60
2018-07-16T23:30:21.173Z,20.70
2018-07-16T23:32:50.713Z,20.80
2018-07-16T23:35:20.732Z,20.70
2018-07-16T23:40:19.043Z,20.50
2018-07-16T23:42:48.416Z,20.40
2018-07-16T23:45:18.967Z,20.40
2018-07-16T23:47:48.484Z,20.40
2018-07-16T23:50:17.917Z,20.40
2018-07-16T23:52:47.037Z,20.30
2018-07-16T23:55:16.114Z,20.30
2018-07-16T23:57:45.601Z,20.20
